sensor_id;sensor_type;location;lat;lon;timestamp;P1;durP1;ratioP1;P2;durP2;ratioP2
55603;SDS011;41468;48.838;9.330;2022-11-20T00:00:48;7.50;;;6.40;;
55603;SDS011;41468;48.838;9.330;2022-11-20T00:03:15;8.53;;;6.73;;
55603;SDS011;41468;48.838;9.330;2022-11-20T00:05:41;6.80;;;6.10;;
55603;SDS011;41468;48.838;9.330;2022-11-20T00:08:08;9.07;;;6.60;;
55603;SDS011;41468;48.838;9.330;2022-11-20T00:10:38;7.57;;;6.87;;
55603;SDS011;41468;48.838;9.330;2022-11-20T00:13:06;7.60;;;6.80;;
55603;SDS011;41468;48.838;9.330;2022-11-20T00:15:33;7.90;;;7.10;;
55603;SDS011;41468;48.838;9.330;2022-11-20T00:18:05;8.37;;;6.73;;
55603;SDS011;41468;48.838;9.330;2022-11-20T00:20:31;7.73;;;6.63;;
55603;SDS011;41468;48.838;9.330;2022-11-20T00:22:58;7.73;;;6.77;;
55603;SDS011;41468;48.838;9.330;2022-11-20T00:25:25;6.97;;;6.17;;
55603;SDS011;41468;48.838;9.330;2022-11-20T00:27:52;7.50;;;6.70;;
55603;SDS011;41468;48.838;9.330;2022-11-20T00:30:18;7.97;;;6.83;;
55603;SDS011;41468;48.838;9.330;2022-11-20T00:32:45;7.33;;;6.53;;
55603;SDS011;41468;48.838;9.330;2022-11-20T00:35:12;8.83;;;7.27;;
55603;SDS011;41468;48.838;9.330;2022-11-20T00:37:38;7.70;;;6.70;;
55603;SDS011;41468;48.838;9.330;2022-11-20T00:40:05;7.23;;;6.53;;
55603;SDS011;41468;48.838;9.330;2022-11-20T00:42:32;6.90;;;6.13;;
55603;SDS011;41468;48.838;9.330;2022-11-20T00:45:00;7.63;;;6.40;;
55603;SDS011;41468;48.838;9.330;2022-11-20T00:47:26;6.93;;;6.23;;
55603;SDS011;41468;48.838;9.330;2022-11-20T00:49:53;10.50;;;6.57;;
55603;SDS011;41468;48.838;9.330;2022-11-20T00:52:20;8.03;;;6.37;;
55603;SDS011;41468;48.838;9.330;2022-11-20T00:54:46;7.80;;;6.47;;
55603;SDS011;41468;48.838;9.330;2022-11-20T00:57:13;7.40;;;6.33;;
55603;SDS011;41468;48.838;9.330;2022-11-20T00:59:40;12.83;;;7.23;;
55603;SDS011;41468;48.838;9.330;2022-11-20T01:02:06;7.47;;;6.67;;
55603;SDS011;41468;48.838;9.330;2022-11-20T01:04:33;7.57;;;6.73;;
55603;SDS011;41468;48.838;9.330;2022-11-20T01:07:00;6.70;;;6.00;;
55603;SDS011;41468;48.838;9.330;2022-11-20T01:09:31;7.60;;;6.57;;
55603;SDS011;41468;48.838;9.330;2022-11-20T01:11:58;7.40;;;6.30;;
55603;SDS011;41468;48.838;9.330;2022-11-20T01:14:25;7.20;;;6.50;;
55603;SDS011;41468;48.838;9.330;2022-11-20T01:16:52;8.30;;;6.53;;
55603;SDS011;41468;48.838;9.330;2022-11-20T01:19:20;6.83;;;6.13;;
55603;SDS011;41468;48.838;9.330;2022-11-20T01:21:49;6.20;;;5.60;;
55603;SDS011;41468;48.838;9.330;2022-11-20T01:24:18;6.53;;;5.77;;
55603;SDS011;41468;48.838;9.330;2022-11-20T01:26:47;7.23;;;6.20;;
55603;SDS011;41468;48.838;9.330;2022-11-20T01:29:17;6.47;;;5.87;;
55603;SDS011;41468;48.838;9.330;2022-11-20T01:31:47;7.13;;;5.90;;
55603;SDS011;41468;48.838;9.330;2022-11-20T01:34:14;6.53;;;5.90;;
55603;SDS011;41468;48.838;9.330;2022-11-20T01:36:43;7.33;;;6.23;;
55603;SDS011;41468;48.838;9.330;2022-11-20T01:39:12;6.97;;;6.20;;
55603;SDS011;41468;48.838;9.330;2022-11-20T01:41:39;6.00;;;5.30;;
55603;SDS011;41468;48.838;9.330;2022-11-20T01:50:04;6.43;;;5.80;;
55603;SDS011;41468;48.838;9.330;2022-11-20T01:52:48;7.50;;;5.80;;
55603;SDS011;41468;48.838;9.330;2022-11-20T01:55:20;5.83;;;5.13;;
55603;SDS011;41468;48.838;9.330;2022-11-20T01:57:56;5.47;;;4.97;;
55603;SDS011;41468;48.838;9.330;2022-11-20T02:00:24;5.20;;;4.70;;
55603;SDS011;41468;48.838;9.330;2022-11-20T02:02:54;5.47;;;4.93;;
55603;SDS011;41468;48.838;9.330;2022-11-20T02:05:28;5.47;;;4.97;;
55603;SDS011;41468;48.838;9.330;2022-11-20T02:07:57;5.20;;;4.70;;
55603;SDS011;41468;48.838;9.330;2022-11-20T02:10:25;5.27;;;4.77;;
55603;SDS011;41468;48.838;9.330;2022-11-20T02:12:58;4.90;;;4.50;;
55603;SDS011;41468;48.838;9.330;2022-11-20T02:15:43;5.63;;;4.53;;
55603;SDS011;41468;48.838;9.330;2022-11-20T02:18:21;4.60;;;4.10;;
55603;SDS011;41468;48.838;9.330;2022-11-20T02:20:50;4.47;;;4.10;;
55603;SDS011;41468;48.838;9.330;2022-11-20T02:26:03;4.40;;;4.00;;
55603;SDS011;41468;48.838;9.330;2022-11-20T02:28:33;5.47;;;4.10;;
55603;SDS011;41468;48.838;9.330;2022-11-20T02:31:00;4.47;;;4.07;;
55603;SDS011;41468;48.838;9.330;2022-11-20T02:33:27;4.30;;;3.90;;
55603;SDS011;41468;48.838;9.330;2022-11-20T02:35:53;4.03;;;3.73;;
55603;SDS011;41468;48.838;9.330;2022-11-20T02:38:20;4.33;;;3.93;;
55603;SDS011;41468;48.838;9.330;2022-11-20T02:40:47;4.23;;;3.87;;
55603;SDS011;41468;48.838;9.330;2022-11-20T02:43:20;4.47;;;3.93;;
55603;SDS011;41468;48.838;9.330;2022-11-20T02:45:47;4.40;;;4.00;;
55603;SDS011;41468;48.838;9.330;2022-11-20T02:48:13;6.03;;;3.97;;
55603;SDS011;41468;48.838;9.330;2022-11-20T02:50:40;4.53;;;4.13;;
55603;SDS011;41468;48.838;9.330;2022-11-20T02:53:07;4.33;;;3.90;;
55603;SDS011;41468;48.838;9.330;2022-11-20T02:55:34;4.87;;;4.30;;
55603;SDS011;41468;48.838;9.330;2022-11-20T02:58:01;3.77;;;3.40;;
55603;SDS011;41468;48.838;9.330;2022-11-20T03:00:28;3.93;;;3.63;;
55603;SDS011;41468;48.838;9.330;2022-11-20T03:02:55;4.40;;;3.23;;
55603;SDS011;41468;48.838;9.330;2022-11-20T03:05:21;3.57;;;3.27;;
55603;SDS011;41468;48.838;9.330;2022-11-20T03:07:48;3.97;;;3.67;;
55603;SDS011;41468;48.838;9.330;2022-11-20T03:10:15;3.60;;;3.30;;
55603;SDS011;41468;48.838;9.330;2022-11-20T03:12:42;3.17;;;2.97;;
55603;SDS011;41468;48.838;9.330;2022-11-20T03:15:08;3.50;;;3.20;;
55603;SDS011;41468;48.838;9.330;2022-11-20T03:17:35;4.93;;;3.20;;
55603;SDS011;41468;48.838;9.330;2022-11-20T03:20:02;3.30;;;3.00;;
55603;SDS011;41468;48.838;9.330;2022-11-20T03:22:29;3.50;;;3.20;;
55603;SDS011;41468;48.838;9.330;2022-11-20T03:24:56;3.53;;;3.23;;
55603;SDS011;41468;48.838;9.330;2022-11-20T03:27:23;3.10;;;2.90;;
55603;SDS011;41468;48.838;9.330;2022-11-20T03:29:50;3.10;;;2.90;;
55603;SDS011;41468;48.838;9.330;2022-11-20T03:32:16;3.40;;;3.00;;
55603;SDS011;41468;48.838;9.330;2022-11-20T03:34:43;2.67;;;2.47;;
55603;SDS011;41468;48.838;9.330;2022-11-20T03:37:09;2.70;;;2.50;;
55603;SDS011;41468;48.838;9.330;2022-11-20T03:39:36;3.50;;;2.87;;
55603;SDS011;41468;48.838;9.330;2022-11-20T03:42:03;2.43;;;2.23;;
55603;SDS011;41468;48.838;9.330;2022-11-20T03:44:56;2.40;;;2.20;;
55603;SDS011;41468;48.838;9.330;2022-11-20T03:47:23;2.23;;;2.13;;
55603;SDS011;41468;48.838;9.330;2022-11-20T03:49:49;2.23;;;2.13;;
55603;SDS011;41468;48.838;9.330;2022-11-20T03:52:16;5.17;;;2.30;;
55603;SDS011;41468;48.838;9.330;2022-11-20T03:54:43;2.73;;;2.53;;
55603;SDS011;41468;48.838;9.330;2022-11-20T03:57:09;2.50;;;2.30;;
55603;SDS011;41468;48.838;9.330;2022-11-20T03:59:36;2.83;;;2.37;;
55603;SDS011;41468;48.838;9.330;2022-11-20T04:02:03;2.70;;;2.50;;
55603;SDS011;41468;48.838;9.330;2022-11-20T04:04:30;2.97;;;2.57;;
55603;SDS011;41468;48.838;9.330;2022-11-20T04:06:56;2.60;;;2.40;;
55603;SDS011;41468;48.838;9.330;2022-11-20T04:09:23;3.30;;;2.50;;
55603;SDS011;41468;48.838;9.330;2022-11-20T04:11:50;2.33;;;2.23;;
55603;SDS011;41468;48.838;9.330;2022-11-20T04:14:16;2.50;;;2.30;;
55603;SDS011;41468;48.838;9.330;2022-11-20T04:16:50;2.50;;;2.40;;
55603;SDS011;41468;48.838;9.330;2022-11-20T04:19:17;2.70;;;2.50;;
55603;SDS011;41468;48.838;9.330;2022-11-20T04:21:44;2.50;;;2.40;;
55603;SDS011;41468;48.838;9.330;2022-11-20T04:24:11;3.00;;;2.40;;
55603;SDS011;41468;48.838;9.330;2022-11-20T04:26:38;2.43;;;2.27;;
55603;SDS011;41468;48.838;9.330;2022-11-20T04:29:05;2.23;;;2.13;;
55603;SDS011;41468;48.838;9.330;2022-11-20T04:31:33;2.67;;;2.47;;
55603;SDS011;41468;48.838;9.330;2022-11-20T04:34:01;3.83;;;2.80;;
55603;SDS011;41468;48.838;9.330;2022-11-20T04:36:33;2.20;;;2.10;;
55603;SDS011;41468;48.838;9.330;2022-11-20T04:39:04;2.57;;;2.33;;
55603;SDS011;41468;48.838;9.330;2022-11-20T04:41:33;2.80;;;2.60;;
55603;SDS011;41468;48.838;9.330;2022-11-20T04:44:02;2.77;;;2.27;;
55603;SDS011;41468;48.838;9.330;2022-11-20T04:46:32;2.43;;;2.23;;
55603;SDS011;41468;48.838;9.330;2022-11-20T04:49:01;2.70;;;2.33;;
55603;SDS011;41468;48.838;9.330;2022-11-20T04:51:27;2.10;;;1.90;;
55603;SDS011;41468;48.838;9.330;2022-11-20T04:53:54;2.50;;;2.30;;
55603;SDS011;41468;48.838;9.330;2022-11-20T04:56:21;2.67;;;2.40;;
55603;SDS011;41468;48.838;9.330;2022-11-20T04:58:49;2.53;;;2.20;;
55603;SDS011;41468;48.838;9.330;2022-11-20T05:01:22;2.40;;;2.20;;
55603;SDS011;41468;48.838;9.330;2022-11-20T05:03:50;3.60;;;2.00;;
55603;SDS011;41468;48.838;9.330;2022-11-20T05:06:18;2.47;;;2.33;;
55603;SDS011;41468;48.838;9.330;2022-11-20T05:08:46;2.40;;;2.20;;
55603;SDS011;41468;48.838;9.330;2022-11-20T05:11:14;4.20;;;2.10;;
55603;SDS011;41468;48.838;9.330;2022-11-20T05:13:42;2.37;;;2.20;;
55603;SDS011;41468;48.838;9.330;2022-11-20T05:16:10;2.47;;;2.10;;
55603;SDS011;41468;48.838;9.330;2022-11-20T05:18:39;2.43;;;2.23;;
55603;SDS011;41468;48.838;9.330;2022-11-20T05:21:08;2.47;;;2.30;;
55603;SDS011;41468;48.838;9.330;2022-11-20T05:23:41;2.70;;;1.93;;
55603;SDS011;41468;48.838;9.330;2022-11-20T05:26:12;2.17;;;2.07;;
55603;SDS011;41468;48.838;9.330;2022-11-20T05:28:42;4.33;;;2.10;;
55603;SDS011;41468;48.838;9.330;2022-11-20T05:31:10;4.23;;;2.10;;
55603;SDS011;41468;48.838;9.330;2022-11-20T05:33:41;2.40;;;2.00;;
55603;SDS011;41468;48.838;9.330;2022-11-20T05:36:09;2.17;;;2.00;;
55603;SDS011;41468;48.838;9.330;2022-11-20T05:38:37;3.10;;;2.30;;
55603;SDS011;41468;48.838;9.330;2022-11-20T05:43:31;2.13;;;2.03;;
55603;SDS011;41468;48.838;9.330;2022-11-20T05:46:00;2.57;;;1.93;;
55603;SDS011;41468;48.838;9.330;2022-11-20T05:48:39;2.47;;;1.90;;
55603;SDS011;41468;48.838;9.330;2022-11-20T05:51:08;3.00;;;2.30;;
55603;SDS011;41468;48.838;9.330;2022-11-20T05:53:36;3.27;;;2.10;;
55603;SDS011;41468;48.838;9.330;2022-11-20T05:56:11;2.13;;;2.03;;
55603;SDS011;41468;48.838;9.330;2022-11-20T05:58:44;2.03;;;1.93;;
55603;SDS011;41468;48.838;9.330;2022-11-20T06:01:19;2.50;;;2.30;;
55603;SDS011;41468;48.838;9.330;2022-11-20T06:03:58;2.10;;;2.00;;
55603;SDS011;41468;48.838;9.330;2022-11-20T06:06:24;2.40;;;2.20;;
55603;SDS011;41468;48.838;9.330;2022-11-20T06:08:52;2.00;;;1.80;;
55603;SDS011;41468;48.838;9.330;2022-11-20T06:11:19;2.27;;;2.10;;
55603;SDS011;41468;48.838;9.330;2022-11-20T06:13:45;2.40;;;2.20;;
55603;SDS011;41468;48.838;9.330;2022-11-20T06:16:13;2.33;;;2.13;;
55603;SDS011;41468;48.838;9.330;2022-11-20T06:18:42;2.17;;;2.07;;
55603;SDS011;41468;48.838;9.330;2022-11-20T06:21:09;2.20;;;2.10;;
55603;SDS011;41468;48.838;9.330;2022-11-20T06:23:38;2.20;;;2.10;;
55603;SDS011;41468;48.838;9.330;2022-11-20T06:26:06;2.00;;;1.90;;
55603;SDS011;41468;48.838;9.330;2022-11-20T06:28:34;2.90;;;2.10;;
55603;SDS011;41468;48.838;9.330;2022-11-20T06:31:02;3.60;;;2.10;;
55603;SDS011;41468;48.838;9.330;2022-11-20T06:33:29;2.30;;;2.03;;
55603;SDS011;41468;48.838;9.330;2022-11-20T06:35:57;2.10;;;2.00;;
55603;SDS011;41468;48.838;9.330;2022-11-20T06:38:28;3.17;;;2.20;;
55603;SDS011;41468;48.838;9.330;2022-11-20T06:41:00;2.40;;;2.07;;
55603;SDS011;41468;48.838;9.330;2022-11-20T06:43:28;3.57;;;1.93;;
55603;SDS011;41468;48.838;9.330;2022-11-20T06:45:55;1.73;;;1.63;;
55603;SDS011;41468;48.838;9.330;2022-11-20T06:48:24;1.90;;;1.80;;
55603;SDS011;41468;48.838;9.330;2022-11-20T06:50:52;1.93;;;1.83;;
55603;SDS011;41468;48.838;9.330;2022-11-20T06:53:19;1.87;;;1.70;;
55603;SDS011;41468;48.838;9.330;2022-11-20T06:55:46;1.80;;;1.70;;
55603;SDS011;41468;48.838;9.330;2022-11-20T06:58:13;2.00;;;1.90;;
55603;SDS011;41468;48.838;9.330;2022-11-20T07:00:41;3.03;;;1.80;;
55603;SDS011;41468;48.838;9.330;2022-11-20T07:03:10;6.07;;;1.90;;
55603;SDS011;41468;48.838;9.330;2022-11-20T07:05:38;1.90;;;1.80;;
55603;SDS011;41468;48.838;9.330;2022-11-20T07:08:05;1.80;;;1.70;;
55603;SDS011;41468;48.838;9.330;2022-11-20T07:10:32;1.90;;;1.70;;
55603;SDS011;41468;48.838;9.330;2022-11-20T07:12:59;2.10;;;1.80;;
55603;SDS011;41468;48.838;9.330;2022-11-20T07:15:26;5.70;;;1.90;;
55603;SDS011;41468;48.838;9.330;2022-11-20T07:17:53;1.97;;;1.80;;
55603;SDS011;41468;48.838;9.330;2022-11-20T07:20:20;2.90;;;1.90;;
55603;SDS011;41468;48.838;9.330;2022-11-20T07:22:47;4.47;;;1.83;;
55603;SDS011;41468;48.838;9.330;2022-11-20T07:25:23;3.50;;;1.70;;
55603;SDS011;41468;48.838;9.330;2022-11-20T07:27:50;2.30;;;2.10;;
55603;SDS011;41468;48.838;9.330;2022-11-20T07:30:17;2.00;;;1.90;;
55603;SDS011;41468;48.838;9.330;2022-11-20T07:32:47;2.37;;;1.73;;
55603;SDS011;41468;48.838;9.330;2022-11-20T07:35:17;1.67;;;1.57;;
55603;SDS011;41468;48.838;9.330;2022-11-20T07:37:44;2.23;;;1.60;;
55603;SDS011;41468;48.838;9.330;2022-11-20T07:40:12;2.83;;;1.90;;
55603;SDS011;41468;48.838;9.330;2022-11-20T07:42:46;2.37;;;2.27;;
55603;SDS011;41468;48.838;9.330;2022-11-20T07:45:18;2.13;;;1.87;;
55603;SDS011;41468;48.838;9.330;2022-11-20T07:47:45;9.20;;;7.37;;
55603;SDS011;41468;48.838;9.330;2022-11-20T07:50:12;8.47;;;7.43;;
55603;SDS011;41468;48.838;9.330;2022-11-20T07:52:40;4.60;;;3.27;;
55603;SDS011;41468;48.838;9.330;2022-11-20T07:55:07;1.53;;;1.50;;
55603;SDS011;41468;48.838;9.330;2022-11-20T07:57:35;2.10;;;1.90;;
55603;SDS011;41468;48.838;9.330;2022-11-20T08:00:02;1.70;;;1.60;;
55603;SDS011;41468;48.838;9.330;2022-11-20T08:02:41;1.80;;;1.70;;
55603;SDS011;41468;48.838;9.330;2022-11-20T08:05:09;1.90;;;1.80;;
55603;SDS011;41468;48.838;9.330;2022-11-20T08:07:41;1.90;;;1.80;;
55603;SDS011;41468;48.838;9.330;2022-11-20T08:10:10;1.80;;;1.70;;
55603;SDS011;41468;48.838;9.330;2022-11-20T08:12:49;2.40;;;2.20;;
55603;SDS011;41468;48.838;9.330;2022-11-20T08:15:36;3.50;;;2.03;;
55603;SDS011;41468;48.838;9.330;2022-11-20T08:18:08;3.90;;;1.97;;
55603;SDS011;41468;48.838;9.330;2022-11-20T08:20:57;2.00;;;1.90;;
55603;SDS011;41468;48.838;9.330;2022-11-20T08:23:24;1.80;;;1.70;;
55603;SDS011;41468;48.838;9.330;2022-11-20T08:25:50;1.90;;;1.67;;
55603;SDS011;41468;48.838;9.330;2022-11-20T08:28:17;1.67;;;1.63;;
55603;SDS011;41468;48.838;9.330;2022-11-20T08:30:47;1.70;;;1.63;;
55603;SDS011;41468;48.838;9.330;2022-11-20T08:33:14;1.60;;;1.60;;
55603;SDS011;41468;48.838;9.330;2022-11-20T08:35:41;2.20;;;2.00;;
55603;SDS011;41468;48.838;9.330;2022-11-20T08:38:09;12.03;;;9.10;;
55603;SDS011;41468;48.838;9.330;2022-11-20T08:40:36;11.57;;;9.23;;
55603;SDS011;41468;48.838;9.330;2022-11-20T08:43:02;3.50;;;3.20;;
55603;SDS011;41468;48.838;9.330;2022-11-20T08:45:29;5.13;;;4.63;;
55603;SDS011;41468;48.838;9.330;2022-11-20T08:48:00;5.00;;;4.53;;
55603;SDS011;41468;48.838;9.330;2022-11-20T08:50:28;2.10;;;1.90;;
55603;SDS011;41468;48.838;9.330;2022-11-20T08:53:01;1.97;;;1.70;;
55603;SDS011;41468;48.838;9.330;2022-11-20T08:55:31;2.63;;;2.37;;
55603;SDS011;41468;48.838;9.330;2022-11-20T08:57:57;1.50;;;1.50;;
55603;SDS011;41468;48.838;9.330;2022-11-20T09:00:24;2.27;;;1.80;;
55603;SDS011;41468;48.838;9.330;2022-11-20T09:02:51;1.73;;;1.63;;
55603;SDS011;41468;48.838;9.330;2022-11-20T09:05:18;1.60;;;1.50;;
55603;SDS011;41468;48.838;9.330;2022-11-20T09:07:45;1.53;;;1.43;;
55603;SDS011;41468;48.838;9.330;2022-11-20T09:10:11;1.60;;;1.50;;
55603;SDS011;41468;48.838;9.330;2022-11-20T09:12:54;1.80;;;1.70;;
55603;SDS011;41468;48.838;9.330;2022-11-20T09:15:24;1.40;;;1.40;;
55603;SDS011;41468;48.838;9.330;2022-11-20T09:17:55;2.53;;;1.63;;
55603;SDS011;41468;48.838;9.330;2022-11-20T09:20:25;1.50;;;1.40;;
55603;SDS011;41468;48.838;9.330;2022-11-20T09:22:52;2.00;;;1.70;;
55603;SDS011;41468;48.838;9.330;2022-11-20T09:25:19;1.30;;;1.30;;
55603;SDS011;41468;48.838;9.330;2022-11-20T09:27:46;1.67;;;1.57;;
55603;SDS011;41468;48.838;9.330;2022-11-20T09:30:13;1.40;;;1.30;;
55603;SDS011;41468;48.838;9.330;2022-11-20T09:32:41;5.23;;;4.80;;
55603;SDS011;41468;48.838;9.330;2022-11-20T09:35:09;1.87;;;1.77;;
55603;SDS011;41468;48.838;9.330;2022-11-20T09:37:37;1.53;;;1.43;;
55603;SDS011;41468;48.838;9.330;2022-11-20T09:40:04;5.07;;;3.80;;
55603;SDS011;41468;48.838;9.330;2022-11-20T09:48:16;1.13;;;1.10;;
55603;SDS011;41468;48.838;9.330;2022-11-20T09:56:28;1.20;;;1.10;;
55603;SDS011;41468;48.838;9.330;2022-11-20T09:58:57;2.10;;;1.00;;
55603;SDS011;41468;48.838;9.330;2022-11-20T10:01:30;1.93;;;1.27;;
55603;SDS011;41468;48.838;9.330;2022-11-20T10:04:06;1.00;;;1.00;;
55603;SDS011;41468;48.838;9.330;2022-11-20T10:09:59;0.90;;;0.90;;
55603;SDS011;41468;48.838;9.330;2022-11-20T10:15:33;1.00;;;1.00;;
55603;SDS011;41468;48.838;9.330;2022-11-20T10:21:02;1.10;;;1.00;;
55603;SDS011;41468;48.838;9.330;2022-11-20T10:23:42;1.30;;;1.00;;
55603;SDS011;41468;48.838;9.330;2022-11-20T10:26:22;1.97;;;1.20;;
55603;SDS011;41468;48.838;9.330;2022-11-20T10:31:39;0.80;;;0.80;;
55603;SDS011;41468;48.838;9.330;2022-11-20T10:34:25;1.03;;;1.00;;
55603;SDS011;41468;48.838;9.330;2022-11-20T10:37:22;0.87;;;0.87;;
55603;SDS011;41468;48.838;9.330;2022-11-20T10:40:01;1.13;;;1.13;;
55603;SDS011;41468;48.838;9.330;2022-11-20T10:42:47;2.27;;;1.07;;
55603;SDS011;41468;48.838;9.330;2022-11-20T10:47:56;1.17;;;1.17;;
55603;SDS011;41468;48.838;9.330;2022-11-20T10:50:36;1.30;;;1.20;;
55603;SDS011;41468;48.838;9.330;2022-11-20T10:53:25;1.30;;;1.20;;
55603;SDS011;41468;48.838;9.330;2022-11-20T10:56:05;1.50;;;1.20;;
55603;SDS011;41468;48.838;9.330;2022-11-20T11:01:19;1.00;;;1.00;;
55603;SDS011;41468;48.838;9.330;2022-11-20T11:03:53;1.17;;;1.00;;
55603;SDS011;41468;48.838;9.330;2022-11-20T11:06:24;1.23;;;1.10;;
55603;SDS011;41468;48.838;9.330;2022-11-20T11:08:55;1.13;;;1.13;;
55603;SDS011;41468;48.838;9.330;2022-11-20T11:11:28;1.00;;;1.00;;
55603;SDS011;41468;48.838;9.330;2022-11-20T11:14:04;2.50;;;1.20;;
55603;SDS011;41468;48.838;9.330;2022-11-20T11:16:48;1.10;;;1.10;;
55603;SDS011;41468;48.838;9.330;2022-11-20T11:19:17;2.30;;;1.30;;
55603;SDS011;41468;48.838;9.330;2022-11-20T11:21:47;1.33;;;1.33;;
55603;SDS011;41468;48.838;9.330;2022-11-20T11:24:21;1.37;;;1.30;;
55603;SDS011;41468;48.838;9.330;2022-11-20T11:27:12;4.40;;;4.10;;
55603;SDS011;41468;48.838;9.330;2022-11-20T11:29:42;3.77;;;1.43;;
55603;SDS011;41468;48.838;9.330;2022-11-20T11:34:39;1.50;;;1.40;;
55603;SDS011;41468;48.838;9.330;2022-11-20T11:37:24;1.60;;;1.50;;
55603;SDS011;41468;48.838;9.330;2022-11-20T11:39:58;1.43;;;1.30;;
55603;SDS011;41468;48.838;9.330;2022-11-20T11:42:58;1.90;;;1.80;;
55603;SDS011;41468;48.838;9.330;2022-11-20T11:45:28;2.00;;;1.63;;
55603;SDS011;41468;48.838;9.330;2022-11-20T11:47:58;1.53;;;1.40;;
55603;SDS011;41468;48.838;9.330;2022-11-20T11:50:29;1.30;;;1.20;;
55603;SDS011;41468;48.838;9.330;2022-11-20T11:53:07;1.83;;;1.53;;
55603;SDS011;41468;48.838;9.330;2022-11-20T12:03:49;1.77;;;1.50;;
55603;SDS011;41468;48.838;9.330;2022-11-20T12:06:25;1.63;;;1.53;;
55603;SDS011;41468;48.838;9.330;2022-11-20T12:08:59;1.40;;;1.30;;
55603;SDS011;41468;48.838;9.330;2022-11-20T12:14:34;1.47;;;1.30;;
55603;SDS011;41468;48.838;9.330;2022-11-20T12:17:04;1.70;;;1.50;;
55603;SDS011;41468;48.838;9.330;2022-11-20T12:19:31;1.57;;;1.47;;
55603;SDS011;41468;48.838;9.330;2022-11-20T12:30:18;2.27;;;1.40;;
55603;SDS011;41468;48.838;9.330;2022-11-20T12:41:00;3.40;;;1.60;;
55603;SDS011;41468;48.838;9.330;2022-11-20T13:07:11;1.20;;;1.10;;
55603;SDS011;41468;48.838;9.330;2022-11-20T13:09:43;0.90;;;0.90;;
55603;SDS011;41468;48.838;9.330;2022-11-20T13:17:37;1.30;;;1.20;;
55603;SDS011;41468;48.838;9.330;2022-11-20T13:20:12;1.20;;;0.90;;
55603;SDS011;41468;48.838;9.330;2022-11-20T13:22:46;4.63;;;4.30;;
55603;SDS011;41468;48.838;9.330;2022-11-20T13:25:36;3.27;;;1.10;;
55603;SDS011;41468;48.838;9.330;2022-11-20T13:28:24;3.40;;;1.20;;
55603;SDS011;41468;48.838;9.330;2022-11-20T13:30:56;1.67;;;0.80;;
55603;SDS011;41468;48.838;9.330;2022-11-20T13:33:28;1.70;;;1.10;;
55603;SDS011;41468;48.838;9.330;2022-11-20T13:36:05;2.27;;;0.97;;
55603;SDS011;41468;48.838;9.330;2022-11-20T13:38:49;0.93;;;0.93;;
55603;SDS011;41468;48.838;9.330;2022-11-20T13:41:28;2.60;;;1.20;;
55603;SDS011;41468;48.838;9.330;2022-11-20T13:44:14;1.20;;;1.10;;
55603;SDS011;41468;48.838;9.330;2022-11-20T13:46:51;2.43;;;1.30;;
55603;SDS011;41468;48.838;9.330;2022-11-20T13:51:48;1.70;;;1.60;;
55603;SDS011;41468;48.838;9.330;2022-11-20T14:00:17;1.33;;;1.20;;
55603;SDS011;41468;48.838;9.330;2022-11-20T14:03:15;1.23;;;1.00;;
55603;SDS011;41468;48.838;9.330;2022-11-20T14:05:37;2.67;;;1.70;;
55603;SDS011;41468;48.838;9.330;2022-11-20T14:08:12;2.67;;;1.50;;
55603;SDS011;41468;48.838;9.330;2022-11-20T14:10:46;1.50;;;1.40;;
55603;SDS011;41468;48.838;9.330;2022-11-20T14:13:18;3.20;;;1.80;;
55603;SDS011;41468;48.838;9.330;2022-11-20T14:15:46;3.23;;;1.47;;
55603;SDS011;41468;48.838;9.330;2022-11-20T14:18:21;1.53;;;1.40;;
55603;SDS011;41468;48.838;9.330;2022-11-20T14:20:48;1.30;;;0.90;;
55603;SDS011;41468;48.838;9.330;2022-11-20T14:23:23;1.27;;;0.90;;
55603;SDS011;41468;48.838;9.330;2022-11-20T14:25:55;0.73;;;0.73;;
55603;SDS011;41468;48.838;9.330;2022-11-20T14:28:29;1.27;;;1.00;;
55603;SDS011;41468;48.838;9.330;2022-11-20T14:30:57;1.07;;;0.80;;
55603;SDS011;41468;48.838;9.330;2022-11-20T14:33:25;3.17;;;1.17;;
55603;SDS011;41468;48.838;9.330;2022-11-20T14:35:53;1.83;;;1.10;;
55603;SDS011;41468;48.838;9.330;2022-11-20T14:38:24;0.90;;;0.90;;
55603;SDS011;41468;48.838;9.330;2022-11-20T14:40:52;0.90;;;0.90;;
55603;SDS011;41468;48.838;9.330;2022-11-20T14:45:55;2.30;;;0.80;;
55603;SDS011;41468;48.838;9.330;2022-11-20T14:48:32;1.20;;;1.10;;
55603;SDS011;41468;48.838;9.330;2022-11-20T14:51:03;2.47;;;1.63;;
55603;SDS011;41468;48.838;9.330;2022-11-20T14:53:30;1.40;;;1.07;;
55603;SDS011;41468;48.838;9.330;2022-11-20T14:56:00;1.77;;;1.60;;
55603;SDS011;41468;48.838;9.330;2022-11-20T14:58:29;1.73;;;1.63;;
55603;SDS011;41468;48.838;9.330;2022-11-20T15:01:11;5.30;;;4.80;;
55603;SDS011;41468;48.838;9.330;2022-11-20T15:03:40;2.17;;;1.63;;
55603;SDS011;41468;48.838;9.330;2022-11-20T15:06:09;3.47;;;1.40;;
55603;SDS011;41468;48.838;9.330;2022-11-20T15:08:38;1.40;;;1.30;;
55603;SDS011;41468;48.838;9.330;2022-11-20T15:11:15;1.70;;;1.60;;
55603;SDS011;41468;48.838;9.330;2022-11-20T15:13:45;2.33;;;2.00;;
55603;SDS011;41468;48.838;9.330;2022-11-20T15:16:14;2.23;;;1.30;;
55603;SDS011;41468;48.838;9.330;2022-11-20T15:18:50;1.70;;;1.60;;
55603;SDS011;41468;48.838;9.330;2022-11-20T15:21:18;2.80;;;1.67;;
55603;SDS011;41468;48.838;9.330;2022-11-20T15:23:47;2.00;;;1.40;;
55603;SDS011;41468;48.838;9.330;2022-11-20T15:26:15;3.43;;;1.20;;
55603;SDS011;41468;48.838;9.330;2022-11-20T15:28:48;3.70;;;2.03;;
55603;SDS011;41468;48.838;9.330;2022-11-20T15:31:21;3.37;;;2.90;;
55603;SDS011;41468;48.838;9.330;2022-11-20T15:33:49;2.40;;;2.20;;
55603;SDS011;41468;48.838;9.330;2022-11-20T15:36:21;2.80;;;2.60;;
55603;SDS011;41468;48.838;9.330;2022-11-20T15:38:48;1.60;;;1.50;;
55603;SDS011;41468;48.838;9.330;2022-11-20T15:41:14;1.47;;;1.37;;
55603;SDS011;41468;48.838;9.330;2022-11-20T15:43:46;2.50;;;1.40;;
55603;SDS011;41468;48.838;9.330;2022-11-20T15:46:13;3.20;;;1.43;;
55603;SDS011;41468;48.838;9.330;2022-11-20T15:48:42;2.37;;;1.43;;
55603;SDS011;41468;48.838;9.330;2022-11-20T15:53:56;1.97;;;1.80;;
55603;SDS011;41468;48.838;9.330;2022-11-20T15:56:24;3.47;;;1.77;;
55603;SDS011;41468;48.838;9.330;2022-11-20T15:58:51;2.43;;;1.90;;
55603;SDS011;41468;48.838;9.330;2022-11-20T16:01:19;1.83;;;1.73;;
55603;SDS011;41468;48.838;9.330;2022-11-20T16:03:48;2.17;;;1.87;;
55603;SDS011;41468;48.838;9.330;2022-11-20T16:06:15;5.80;;;4.33;;
55603;SDS011;41468;48.838;9.330;2022-11-20T16:08:42;14.90;;;11.00;;
55603;SDS011;41468;48.838;9.330;2022-11-20T16:11:12;7.33;;;6.10;;
55603;SDS011;41468;48.838;9.330;2022-11-20T16:13:41;6.63;;;4.00;;
55603;SDS011;41468;48.838;9.330;2022-11-20T16:16:31;28.27;;;19.00;;
55603;SDS011;41468;48.838;9.330;2022-11-20T16:18:59;6.23;;;5.63;;
55603;SDS011;41468;48.838;9.330;2022-11-20T16:21:26;2.50;;;1.97;;
55603;SDS011;41468;48.838;9.330;2022-11-20T16:23:58;1.47;;;1.40;;
55603;SDS011;41468;48.838;9.330;2022-11-20T16:26:30;1.50;;;1.40;;
55603;SDS011;41468;48.838;9.330;2022-11-20T16:28:58;1.90;;;1.70;;
55603;SDS011;41468;48.838;9.330;2022-11-20T16:31:25;1.50;;;1.40;;
55603;SDS011;41468;48.838;9.330;2022-11-20T16:33:54;1.30;;;1.30;;
55603;SDS011;41468;48.838;9.330;2022-11-20T16:36:23;1.60;;;1.50;;
55603;SDS011;41468;48.838;9.330;2022-11-20T16:38:54;2.90;;;1.63;;
55603;SDS011;41468;48.838;9.330;2022-11-20T16:41:22;1.43;;;1.33;;
55603;SDS011;41468;48.838;9.330;2022-11-20T16:43:50;1.83;;;1.67;;
55603;SDS011;41468;48.838;9.330;2022-11-20T16:46:20;2.10;;;2.00;;
55603;SDS011;41468;48.838;9.330;2022-11-20T16:48:53;1.90;;;1.73;;
55603;SDS011;41468;48.838;9.330;2022-11-20T16:51:30;2.00;;;1.80;;
55603;SDS011;41468;48.838;9.330;2022-11-20T16:54:16;2.50;;;2.30;;
55603;SDS011;41468;48.838;9.330;2022-11-20T16:56:46;2.10;;;1.90;;
55603;SDS011;41468;48.838;9.330;2022-11-20T16:59:13;2.30;;;1.60;;